Garfield County Regional Airport
KRIL : rendu visible

Aérodrome :











RETROUVEZ-NOUS SUR...

 
LOGIN :

S'inscrire | Disclaimer

   EN    FR    IT 

 









Légende :    VFR   VFR Marginal   IFR   IFR Intensif   IFR Très Intensif
Visi : 
Plafond : 
>= 8 km
>= 3000ft
5 à 8 km
1000 à 3000 ft
1500m à 5 km
500 à 1000 ft
800 à 1500m
200 à 500 ft
< 800m
< 200 ft
Symboles :   Orages  Brouillard  Fortes neiges  Fortes précipitations  Vent > 20 kt






- Altitude de l'aérodrome : 5548 ft


KRIL - Garfield County Regional

DERNIER METAR :
  • 100653Z AUTO 00000KT 10SM BKN043 M03/M06 A3016 RMK AO2 SLP228 T10331056 400611039

METARs EXPIRÉS :
  • 100553Z AUTO 18003KT 10SM SCT033 M04/M06 A3015 RMK AO2 SLP225 T10391061 10033 21039 51009
  • 100453Z AUTO 00000KT 10SM CLR M03/M06 A3014 RMK AO2 SLP223 T10281056

TAF KRIL
Valide du 10 à 06h jusqu'au 11 à 06h UTC


100540Z 1006/1106 VRB05KT P6SM SCT200
FM101300 00000KT P6SM SCT150
FM102000 VRB03KT P6SM FEW250
FM110000 VRB03KT P6SM BKN250



MET'MAP, la Météo Aéronautique d'un coup d'oeil ! - Copyright ORBIFLY Décembre 2007 - Disclaimer

ORBIFLY MET'MAP TEAM :

Programmation & Développement : Alexandra Zaïnal
Sur une idée originale de : Baudouin d'Aumeries
Assistance à la programmation : Marc-Olivier Méhu
Soutien technique & logistique : Manuel Goepfert

Contact : metmap@orbifly.com




SOURCES & CREDITS :

   NOAA       Earth
Advisory